Monroe, MI (48161)

10:34 EDT 20. Srpen 2014 (GMT -0400)
Raisin Ridge | Change Station
CLOSE
Current Station
Osobní povětrnostní stanice
Location: Monroe, MI
Nadmořská výška: 614 ft
Poblíž povětrnostní stanice

Výška 614 ft 41.93 °N, 83.47 °W | Updated 44 seconds ago

Overcast
Zataženo
71.1 °F
Pocit jako 71.1 °F
S
0.0
Vítr proměnlivý Vítr od západní

Dnes
Vysoké -- | Nízké -- °F
--% Možnost srážek
Včera
Vysoké -- | Nízké -- °F
Precip. -- inčů
6:47 AM 8:26 PM
Ubývající srpek, 21% visible
Tlak 29.85 inčů
Viditelnost 5.0 mílí
Zataženo Zataženo 600 ft
Rosný bod 69 °F
Vlhkost 94%
Dešťové srážky 0.00 inčů
Sněhová pokrývka Není k dispozici
UV záření 1 ze 12
Pyl 8.40 ze 12
Ozón Dobrý
PM2.5 Střední
Flu Activity Není k dispozici
METAR KTTF 201410Z AUTO 29005KT 5SM BR OVC006 22/19 A2985 RMK AO2

More Conditions Fewer Conditions

Tlak 29.85 inčů
Viditelnost 5.0 mílí
Zataženo Zataženo 600 ft
Rosný bod 69 °F
Vlhkost 94%
Dešťové srážky 0.00 inčů
Sněhová pokrývka Není k dispozici
UV záření 1 ze 12
Pyl 8.40 ze 12
Ozón Dobrý
PM2.5 Střední
Flu Activity Není k dispozici
METAR KTTF 201410Z AUTO 29005KT 5SM BR OVC006 22/19 A2985 RMK AO2

More Conditions Fewer Conditions

10-Day Weather Forecast

Almanac

Astronomie

Aug. 20, 2014 Východ Západ
Skutečný čas 06:47 EDT 20:26 EDT
Občanský soumrak 06:17 EDT 20:56 EDT
Námořní soumrak 05:41 EDT 21:31 EDT
Astronomický soumrak 05:03 EDT 22:09 EDT
Měsíc 02:24 EDT 17:12 EDT
Délka denního světla 14h 38m
Délka dne
13h 39m
Tomorrow will be 2m 34s shorter.
Ubývající srpek, 21% of the Moon is Illuminated
Dnes
Ubývající srpek
Srp 25
Nov
Zář 2
První čtvrť
Zář 8
Úplněk
Zář 15
Ubývající

Dnešní extrémy

State Highs State Lows

Community

WunderPhotos

Upload Photos

1,745,654 snímků staženo!

Nearby

Kvalita ovzduší

  Kvalita ovzduší Index kvality ovzduší Polutant
Včera Dobrý
PM10
Včera Dobrý
OZONE
Nyní Střední
PM2.5
Nyní Dobrý
OZONE
Středa Střední
PM2.5
Středa Dobrý
OZONE
Čtvrtek Střední
PM2.5
Čtvrtek Dobrý
OZONE

Výška sněhu

Station Hloubka Nadmořská výška
Žádný nový sníh nebyl hlášen

Seizmická činnost

Město Distance Mag. Čas & datum
Žádné zemětřesení v okolí nebylo hlášeno
Minimální zobrazený rozsah je 2.5.

Pobřežní teplota vody

Lokalita Teplota
Marblehead, OH 71.1 °F

Poblíž povětrnostní stanice